Time;durP1;ratioP1;P1;durP2;ratioP2;P2;SDS_P1;SDS_P2;PMS_P1;PMS_P2;Temp;Humidity;BMP_temperature;BMP_pressure;BME280_temperature;BME280_humidity;BME280_pressure;Samples;Min_cycle;Max_cycle;Signal;HPM_P1;HPM_P2
2022/09/08 00:01:35;;;;;;;19.90;7.28;;;;;;;;;;5119018;28;20575;-54
2022/09/08 00:04:04;;;;;;;15.70;6.72;;;;;;;;;;5118769;28;20202;-52
2022/09/08 00:06:32;;;;;;;20.30;7.68;;;;;;;;;;5118553;28;20221;-52
2022/09/08 00:08:59;;;;;;;19.70;7.75;;;;;;;;;;5118573;28;20202;-54
2022/09/08 00:11:31;;;;;;;16.05;6.93;;;;;;;;;;5118721;28;20232;-57
2022/09/08 00:14:02;;;;;;;15.95;6.82;;;;;;;;;;5118864;27;20255;-51
2022/09/08 00:16:29;;;;;;;15.18;6.25;;;;;;;;;;5117295;28;20206;-56
2022/09/08 00:18:56;;;;;;;15.60;5.45;;;;;;;;;;5117174;28;20209;-54
2022/09/08 00:21:26;;;;;;;14.90;5.82;;;;;;;;;;5116588;28;20208;-55
2022/09/08 00:23:53;;;;;;;16.75;6.43;;;;;;;;;;5116610;28;20205;-53
2022/09/08 00:26:21;;;;;;;20.13;6.95;;;;;;;;;;5116562;28;20320;-55
2022/09/08 00:28:48;;;;;;;15.48;5.95;;;;;;;;;;5117492;28;20225;-56
2022/09/08 00:31:16;;;;;;;15.70;6.40;;;;;;;;;;5117483;28;20198;-52
2022/09/08 00:33:44;;;;;;;13.15;6.20;;;;;;;;;;5117240;28;20230;-55
2022/09/08 00:36:14;;;;;;;14.15;6.57;;;;;;;;;;5117274;28;20288;-56
2022/09/08 00:38:42;;;;;;;15.30;5.82;;;;;;;;;;5118065;28;20225;-56
2022/09/08 00:41:12;;;;;;;11.65;5.30;;;;;;;;;;5117970;28;20280;-57
2022/09/08 00:43:58;;;;;;;13.82;5.35;;;;;;;;;;5118235;28;20583;-55
2022/09/08 00:46:34;;;;;;;13.45;5.70;;;;;;;;;;5117715;28;20286;-52
2022/09/08 00:49:09;;;;;;;12.85;5.65;;;;;;;;;;5118032;28;20230;-50
2022/09/08 00:51:39;;;;;;;13.48;5.63;;;;;;;;;;5117988;28;20213;-50
2022/09/08 00:54:06;;;;;;;15.48;5.70;;;;;;;;;;5118476;28;20220;-50
2022/09/08 00:56:33;;;;;;;18.48;6.05;;;;;;;;;;5117888;27;20290;-51
2022/09/08 00:59:01;;;;;;;12.30;5.47;;;;;;;;;;5117836;28;20563;-50
2022/09/08 01:01:31;;;;;;;16.08;5.65;;;;;;;;;;5117839;28;20217;-50
2022/09/08 01:03:58;;;;;;;15.88;6.47;;;;;;;;;;5116928;28;20646;-51
2022/09/08 01:12:49;;;;;;;17.17;6.85;;;;;;;;;;5117180;28;20341;-53
2022/09/08 01:15:23;;;;;;;12.20;6.57;;;;;;;;;;5117117;28;20202;-50
2022/09/08 01:17:54;;;;;;;16.70;6.80;;;;;;;;;;5117907;28;20179;-51
2022/09/08 01:20:27;;;;;;;15.25;6.57;;;;;;;;;;5117546;28;20274;-53
2022/09/08 01:23:09;;;;;;;14.55;6.47;;;;;;;;;;5116457;28;20301;-57
2022/09/08 01:26:21;;;;;;;12.88;6.32;;;;;;;;;;5117395;28;20222;-52
2022/09/08 01:28:56;;;;;;;14.35;6.60;;;;;;;;;;5111496;28;20286;-51
2022/09/08 01:31:24;;;;;;;14.25;6.53;;;;;;;;;;5099760;28;20507;-56
2022/09/08 01:33:51;;;;;;;18.95;7.57;;;;;;;;;;5116394;28;20202;-54
2022/09/08 01:36:18;;;;;;;13.98;6.88;;;;;;;;;;5116050;28;20293;-50
2022/09/08 01:38:45;;;;;;;14.80;6.10;;;;;;;;;;5117356;28;20229;-54
2022/09/08 01:41:13;;;;;;;15.00;6.47;;;;;;;;;;5116754;27;20630;-52
2022/09/08 01:43:40;;;;;;;22.65;9.15;;;;;;;;;;5116758;28;20623;-52
2022/09/08 01:46:07;;;;;;;19.52;8.65;;;;;;;;;;5116641;28;20233;-53
2022/09/08 01:48:35;;;;;;;14.05;6.85;;;;;;;;;;5116998;28;20234;-57
2022/09/08 01:51:04;;;;;;;11.73;6.20;;;;;;;;;;5116834;28;20212;-51
2022/09/08 01:53:32;;;;;;;17.40;6.50;;;;;;;;;;5117041;28;20198;-50
2022/09/08 01:55:59;;;;;;;15.02;6.45;;;;;;;;;;5116485;28;20266;-50
2022/09/08 01:58:26;;;;;;;19.05;7.20;;;;;;;;;;5117578;28;20202;-51
2022/09/08 02:00:53;;;;;;;17.05;6.63;;;;;;;;;;5116419;28;20206;-51
2022/09/08 02:03:21;;;;;;;17.70;5.82;;;;;;;;;;5116902;28;20225;-56
2022/09/08 02:05:48;;;;;;;18.00;6.50;;;;;;;;;;5116608;28;20210;-50
2022/09/08 02:08:15;;;;;;;19.70;6.18;;;;;;;;;;5116324;28;20259;-55
2022/09/08 02:10:52;;;;;;;14.75;6.30;;;;;;;;;;5115673;28;20201;-53
2022/09/08 02:13:19;;;;;;;16.35;6.75;;;;;;;;;;5116322;28;20266;-50
2022/09/08 02:15:46;;;;;;;15.55;7.03;;;;;;;;;;5116467;28;20530;-52
2022/09/08 02:18:13;;;;;;;15.23;6.95;;;;;;;;;;5116438;27;20228;-51
2022/09/08 02:20:40;;;;;;;16.55;6.75;;;;;;;;;;5116408;28;20202;-50
2022/09/08 02:23:06;;;;;;;16.52;6.38;;;;;;;;;;5116155;28;20202;-53
2022/09/08 02:25:33;;;;;;;17.83;6.38;;;;;;;;;;5116196;28;20252;-51
2022/09/08 02:28:01;;;;;;;12.27;6.38;;;;;;;;;;5116206;28;20198;-52
2022/09/08 02:30:28;;;;;;;14.25;5.60;;;;;;;;;;5116238;28;20209;-52
2022/09/08 02:32:55;;;;;;;14.30;6.32;;;;;;;;;;5115992;28;20527;-56
2022/09/08 02:35:22;;;;;;;11.38;5.82;;;;;;;;;;5116102;28;20209;-50
2022/09/08 02:37:49;;;;;;;12.38;5.78;;;;;;;;;;5116442;28;20206;-55
2022/09/08 02:40:16;;;;;;;10.93;4.88;;;;;;;;;;5116003;28;20338;-52
2022/09/08 02:42:46;;;;;;;14.60;5.82;;;;;;;;;;5115767;28;20555;-54
2022/09/08 02:45:13;;;;;;;12.23;6.07;;;;;;;;;;5115844;28;20293;-51
2022/09/08 02:47:40;;;;;;;14.50;6.25;;;;;;;;;;5114744;28;20754;-52
2022/09/08 02:50:07;;;;;;;13.15;5.70;;;;;;;;;;5115832;28;20205;-50
2022/09/08 02:52:34;;;;;;;12.38;5.50;;;;;;;;;;5115582;28;20688;-57
2022/09/08 02:55:01;;;;;;;13.88;5.55;;;;;;;;;;5115505;27;20202;-51
2022/09/08 02:57:28;;;;;;;13.88;6.30;;;;;;;;;;5116150;28;20215;-51
2022/09/08 02:59:55;;;;;;;10.13;5.38;;;;;;;;;;5115578;28;20202;-52
2022/09/08 03:02:22;;;;;;;12.52;4.93;;;;;;;;;;5115770;28;20208;-50
2022/09/08 03:04:49;;;;;;;12.50;4.95;;;;;;;;;;5115883;28;20530;-54
2022/09/08 03:07:17;;;;;;;12.50;6.07;;;;;;;;;;5114705;28;20553;-50
2022/09/08 03:09:44;;;;;;;22.52;8.43;;;;;;;;;;5115540;28;20198;-55
2022/09/08 03:12:12;;;;;;;17.80;6.70;;;;;;;;;;5115897;28;20198;-50
2022/09/08 03:14:38;;;;;;;8.93;5.22;;;;;;;;;;5115529;28;20289;-50
2022/09/08 03:17:05;;;;;;;10.73;5.38;;;;;;;;;;5115111;28;20622;-52
2022/09/08 03:19:32;;;;;;;18.85;6.40;;;;;;;;;;5115335;28;20201;-57
2022/09/08 03:21:59;;;;;;;8.40;5.10;;;;;;;;;;5115624;28;20201;-51
2022/09/08 03:24:26;;;;;;;11.48;5.45;;;;;;;;;;5115147;28;20289;-50
2022/09/08 03:26:53;;;;;;;13.90;5.30;;;;;;;;;;5114804;28;20562;-50
2022/09/08 03:29:20;;;;;;;10.63;5.32;;;;;;;;;;5115124;28;20349;-55
2022/09/08 03:31:47;;;;;;;14.43;5.50;;;;;;;;;;5114810;28;20641;-57
2022/09/08 03:34:14;;;;;;;15.20;5.60;;;;;;;;;;5114819;28;20205;-55
2022/09/08 03:36:41;;;;;;;12.23;5.15;;;;;;;;;;5114697;28;20205;-53
2022/09/08 03:39:08;;;;;;;11.13;4.88;;;;;;;;;;5115040;28;20280;-55
2022/09/08 03:41:36;;;;;;;13.25;6.18;;;;;;;;;;5109675;27;20304;-58
2022/09/08 03:44:03;;;;;;;14.98;5.65;;;;;;;;;;5113916;28;20229;-55
2022/09/08 03:46:32;;;;;;;13.70;5.47;;;;;;;;;;5113899;28;20340;-54
2022/09/08 03:49:00;;;;;;;12.70;5.55;;;;;;;;;;5100784;28;20229;-53
2022/09/08 03:51:28;;;;;;;11.23;4.88;;;;;;;;;;5098456;28;20655;-54
2022/09/08 03:54:46;;;;;;;12.73;5.82;;;;;;;;;;5104025;28;20221;-53
2022/09/08 03:56:46;;;;;;;12.13;5.97;;;;;;;;;;5113229;28;20565;-53
2022/09/08 03:59:12;;;;;;;13.52;5.65;;;;;;;;;;5113969;28;20218;-52
2022/09/08 04:01:39;;;;;;;14.07;6.85;;;;;;;;;;5113821;28;20279;-57
2022/09/08 04:04:07;;;;;;;14.02;6.30;;;;;;;;;;5112445;28;20543;-52
2022/09/08 04:06:34;;;;;;;11.63;6.88;;;;;;;;;;5094604;28;20541;-53
2022/09/08 04:09:00;;;;;;;14.60;6.60;;;;;;;;;;5092968;28;20607;-55
2022/09/08 04:11:28;;;;;;;12.75;6.90;;;;;;;;;;5092196;28;20230;-56
2022/09/08 04:13:54;;;;;;;17.52;7.25;;;;;;;;;;5093114;28;20222;-57
2022/09/08 04:16:21;;;;;;;13.25;6.32;;;;;;;;;;5093380;28;20233;-55
2022/09/08 04:18:48;;;;;;;17.13;6.32;;;;;;;;;;5093712;28;20219;-52
2022/09/08 04:21:15;;;;;;;17.55;6.40;;;;;;;;;;5097446;28;20223;-56
2022/09/08 04:23:43;;;;;;;12.50;6.45;;;;;;;;;;5096082;28;20225;-56
2022/09/08 04:26:12;;;;;;;10.57;6.28;;;;;;;;;;5096936;28;20311;-55
2022/09/08 04:28:39;;;;;;;13.43;5.55;;;;;;;;;;5097231;28;20226;-57
2022/09/08 04:31:10;;;;;;;12.05;5.45;;;;;;;;;;5097670;28;20227;-57
2022/09/08 04:33:37;;;;;;;12.18;5.38;;;;;;;;;;5096434;28;20226;-57
2022/09/08 04:36:10;;;;;;;11.60;5.40;;;;;;;;;;5097170;28;20687;-52
2022/09/08 04:38:57;;;;;;;9.90;5.15;;;;;;;;;;5096729;28;20222;-57
2022/09/08 04:41:26;;;;;;;10.82;4.50;;;;;;;;;;5096935;28;20299;-54
2022/09/08 04:43:54;;;;;;;12.98;5.28;;;;;;;;;;5096777;28;20233;-57
2022/09/08 04:46:21;;;;;;;11.18;4.93;;;;;;;;;;5096934;28;20234;-55
2022/09/08 04:48:48;;;;;;;13.43;4.75;;;;;;;;;;5103083;28;20670;-57
2022/09/08 04:51:16;;;;;;;8.80;4.43;;;;;;;;;;5113433;28;20283;-57
2022/09/08 04:53:44;;;;;;;8.35;4.35;;;;;;;;;;5114475;27;20310;-57
2022/09/08 04:56:11;;;;;;;8.07;3.92;;;;;;;;;;5109305;28;20237;-55
2022/09/08 04:58:40;;;;;;;7.28;3.80;;;;;;;;;;5114063;28;20259;-50
2022/09/08 05:01:09;;;;;;;7.50;4.03;;;;;;;;;;5115607;27;20287;-53
2022/09/08 05:03:37;;;;;;;7.13;3.28;;;;;;;;;;5115957;28;20217;-51
2022/09/08 05:06:06;;;;;;;8.88;3.83;;;;;;;;;;5115674;28;20234;-50
2022/09/08 05:08:33;;;;;;;7.22;3.85;;;;;;;;;;5114810;28;20301;-55
2022/09/08 05:11:00;;;;;;;7.05;3.53;;;;;;;;;;5113830;27;20293;-51
2022/09/08 05:13:28;;;;;;;10.52;3.90;;;;;;;;;;5115270;28;20222;-56
2022/09/08 05:16:06;;;;;;;8.85;4.10;;;;;;;;;;5113308;28;20694;-57
2022/09/08 05:18:34;;;;;;;10.93;4.30;;;;;;;;;;5117762;28;20182;-53
2022/09/08 05:21:02;;;;;;;8.20;4.20;;;;;;;;;;5117379;28;20276;-54
2022/09/08 05:23:29;;;;;;;7.95;4.38;;;;;;;;;;5117243;28;20205;-53
2022/09/08 05:25:59;;;;;;;9.32;3.33;;;;;;;;;;5117255;28;20206;-58
2022/09/08 05:28:28;;;;;;;7.47;3.90;;;;;;;;;;5117526;28;20213;-55
2022/09/08 05:30:56;;;;;;;6.22;3.58;;;;;;;;;;5116423;28;20258;-52
2022/09/08 05:33:23;;;;;;;6.93;3.60;;;;;;;;;;5116602;28;20194;-52
2022/09/08 05:35:50;;;;;;;8.82;3.40;;;;;;;;;;5115888;28;20193;-56
2022/09/08 05:38:17;;;;;;;7.75;3.42;;;;;;;;;;5116678;28;20206;-55
2022/09/08 05:40:45;;;;;;;9.23;3.47;;;;;;;;;;5116607;28;20217;-52
2022/09/08 05:43:12;;;;;;;6.60;3.20;;;;;;;;;;5116805;28;20202;-58
2022/09/08 05:45:43;;;;;;;7.65;3.30;;;;;;;;;;5116184;28;20206;-51
2022/09/08 05:48:11;;;;;;;6.93;3.35;;;;;;;;;;5116487;28;20225;-51
2022/09/08 05:50:41;;;;;;;7.95;3.42;;;;;;;;;;5116613;28;20216;-54
2022/09/08 05:53:08;;;;;;;7.03;3.40;;;;;;;;;;5116033;27;20194;-55
2022/09/08 05:55:35;;;;;;;5.47;3.08;;;;;;;;;;5114726;28;20206;-54
2022/09/08 05:58:02;;;;;;;5.38;3.25;;;;;;;;;;5115621;28;20216;-50
2022/09/08 06:01:02;;;;;;;9.05;3.03;;;;;;;;;;5116953;28;20539;-53
2022/09/08 06:03:29;;;;;;;9.68;3.30;;;;;;;;;;5114677;28;20198;-52
2022/09/08 06:06:05;;;;;;;5.40;2.90;;;;;;;;;;5114295;28;20216;-54
2022/09/08 06:08:34;;;;;;;8.98;3.05;;;;;;;;;;5116060;28;20211;-55
2022/09/08 06:11:01;;;;;;;8.13;2.92;;;;;;;;;;5115769;28;20307;-55
2022/09/08 06:13:30;;;;;;;3.88;2.53;;;;;;;;;;5116186;28;20645;-57
2022/09/08 06:16:11;;;;;;;5.03;2.95;;;;;;;;;;5115483;28;20247;-56
2022/09/08 06:18:42;;;;;;;3.75;2.45;;;;;;;;;;5115266;28;20201;-57
2022/09/08 06:21:13;;;;;;;4.72;2.55;;;;;;;;;;5114740;28;20206;-56
2022/09/08 06:23:40;;;;;;;6.05;2.53;;;;;;;;;;5114311;28;20205;-55
2022/09/08 06:26:19;;;;;;;6.90;2.75;;;;;;;;;;5114298;28;20194;-57
2022/09/08 06:28:55;;;;;;;6.05;2.30;;;;;;;;;;5115574;28;20206;-55
2022/09/08 06:31:27;;;;;;;6.55;2.47;;;;;;;;;;5115036;28;20185;-53
2022/09/08 06:33:55;;;;;;;5.85;2.30;;;;;;;;;;5114746;28;20198;-56
2022/09/08 06:36:48;;;;;;;5.38;2.28;;;;;;;;;;5115231;28;20212;-52
2022/09/08 06:39:26;;;;;;;5.47;2.50;;;;;;;;;;5115365;28;20202;-51
2022/09/08 06:42:03;;;;;;;4.90;2.38;;;;;;;;;;5115250;28;20206;-55
2022/09/08 06:44:34;;;;;;;4.25;2.22;;;;;;;;;;5112913;28;20205;-54
2022/09/08 06:47:00;;;;;;;4.25;2.25;;;;;;;;;;5113763;28;20232;-53
2022/09/08 06:49:28;;;;;;;6.68;2.40;;;;;;;;;;5115103;28;20202;-56
2022/09/08 06:52:11;;;;;;;4.47;1.95;;;;;;;;;;5114928;28;20206;-56
2022/09/08 06:55:02;;;;;;;5.80;2.17;;;;;;;;;;5113233;28;20194;-57
2022/09/08 06:58:06;;;;;;;4.10;1.85;;;;;;;;;;5110259;28;20202;-54
2022/09/08 07:00:43;;;;;;;3.15;1.88;;;;;;;;;;5114511;28;20197;-54
2022/09/08 07:03:30;;;;;;;3.40;1.80;;;;;;;;;;5112888;28;20212;-57
2022/09/08 07:06:06;;;;;;;5.43;1.80;;;;;;;;;;5112781;28;20229;-55
2022/09/08 07:09:02;;;;;;;4.55;1.85;;;;;;;;;;5115699;28;20217;-54
2022/09/08 07:11:42;;;;;;;4.43;1.70;;;;;;;;;;5114779;28;20198;-56
2022/09/08 07:14:40;;;;;;;3.50;1.60;;;;;;;;;;5114960;28;20182;-55
2022/09/08 07:17:10;;;;;;;3.78;1.70;;;;;;;;;;5115762;28;20572;-56
2022/09/08 07:19:52;;;;;;;6.63;2.10;;;;;;;;;;5115546;28;20213;-55
2022/09/08 07:22:36;;;;;;;5.22;1.92;;;;;;;;;;5115475;28;20186;-56
2022/09/08 07:25:19;;;;;;;5.70;1.90;;;;;;;;;;5113892;28;20227;-57
2022/09/08 07:27:50;;;;;;;4.18;1.80;;;;;;;;;;5114069;28;20646;-56
2022/09/08 07:30:18;;;;;;;3.20;1.88;;;;;;;;;;5114244;28;20202;-56
2022/09/08 07:32:52;;;;;;;6.28;1.52;;;;;;;;;;5114599;28;20198;-54
2022/09/08 07:36:15;;;;;;;4.68;1.70;;;;;;;;;;5113528;28;20202;-57
2022/09/08 07:38:47;;;;;;;8.45;1.98;;;;;;;;;;5114057;28;20206;-56
2022/09/08 07:41:40;;;;;;;3.88;1.70;;;;;;;;;;5114174;28;20270;-55
2022/09/08 07:44:11;;;;;;;5.03;1.80;;;;;;;;;;5110264;28;20202;-57
2022/09/08 07:46:51;;;;;;;7.05;1.70;;;;;;;;;;5113470;28;20202;-58
2022/09/08 07:49:23;;;;;;;8.27;1.65;;;;;;;;;;5115197;28;20225;-58
2022/09/08 07:51:54;;;;;;;4.22;1.58;;;;;;;;;;5114854;28;20634;-54
2022/09/08 07:54:32;;;;;;;2.17;1.50;;;;;;;;;;5116866;28;20251;-59
2022/09/08 07:57:15;;;;;;;4.57;1.58;;;;;;;;;;5118268;28;20273;-58
2022/09/08 08:00:28;;;;;;;3.40;1.85;;;;;;;;;;5117918;28;20213;-58
2022/09/08 08:03:15;;;;;;;7.80;1.83;;;;;;;;;;5118530;28;20563;-58
2022/09/08 08:05:48;;;;;;;5.90;1.58;;;;;;;;;;5117131;28;20209;-58
2022/09/08 08:08:16;;;;;;;8.85;1.80;;;;;;;;;;5117890;28;20225;-56
2022/09/08 08:10:51;;;;;;;8.43;1.90;;;;;;;;;;5116909;27;20632;-58
2022/09/08 08:13:37;;;;;;;5.13;1.60;;;;;;;;;;5118523;28;20707;-58
2022/09/08 08:16:09;;;;;;;2.08;1.45;;;;;;;;;;5117825;27;20205;-55
2022/09/08 08:18:49;;;;;;;9.43;1.60;;;;;;;;;;5117690;28;20232;-58
2022/09/08 08:21:24;;;;;;;5.05;1.42;;;;;;;;;;5117454;28;20197;-56
2022/09/08 08:23:57;;;;;;;3.13;1.67;;;;;;;;;;5117694;28;20198;-58
2022/09/08 08:26:27;;;;;;;3.10;1.73;;;;;;;;;;5118705;28;20198;-55
2022/09/08 08:29:16;;;;;;;4.15;1.70;;;;;;;;;;5117792;28;20674;-55
2022/09/08 08:31:49;;;;;;;6.75;1.65;;;;;;;;;;5117345;28;20273;-57
2022/09/08 08:34:32;;;;;;;5.50;1.60;;;;;;;;;;5116384;28;20198;-58
2022/09/08 08:37:04;;;;;;;3.45;1.50;;;;;;;;;;5115811;28;20259;-57
2022/09/08 08:39:33;;;;;;;6.18;1.63;;;;;;;;;;5116874;28;20202;-57
2022/09/08 08:42:19;;;;;;;7.95;1.92;;;;;;;;;;5115909;28;20202;-57
2022/09/08 08:45:04;;;;;;;5.90;1.27;;;;;;;;;;5117471;28;20526;-55
2022/09/08 08:48:12;;;;;;;2.13;1.52;;;;;;;;;;5115873;28;20311;-58
2022/09/08 08:51:16;;;;;;;6.72;1.90;;;;;;;;;;5117270;28;20213;-58
2022/09/08 08:53:46;;;;;;;9.75;1.88;;;;;;;;;;5113272;28;20289;-58
2022/09/08 08:56:37;;;;;;;5.18;2.35;;;;;;;;;;5117741;28;20576;-56
2022/09/08 08:59:26;;;;;;;5.78;1.73;;;;;;;;;;5117802;28;20201;-56
2022/09/08 09:02:15;;;;;;;3.97;1.85;;;;;;;;;;5117679;28;20239;-56
2022/09/08 09:05:18;;;;;;;5.65;1.55;;;;;;;;;;5117822;28;20194;-55
2022/09/08 09:07:57;;;;;;;2.55;1.75;;;;;;;;;;5116554;28;20217;-56
2022/09/08 09:11:17;;;;;;;5.03;1.90;;;;;;;;;;5118262;27;20209;-54
2022/09/08 09:13:51;;;;;;;5.18;1.52;;;;;;;;;;5075219;28;20206;-56
2022/09/08 09:16:36;;;;;;;2.63;1.90;;;;;;;;;;5075138;28;20207;-58
2022/09/08 09:19:14;;;;;;;6.85;2.75;;;;;;;;;;5075363;28;20203;-58
2022/09/08 09:21:41;;;;;;;3.53;2.15;;;;;;;;;;5058508;28;20191;-54
2022/09/08 09:24:28;;;;;;;3.30;1.80;;;;;;;;;;5075035;28;20200;-53
2022/09/08 09:26:56;;;;;;;3.75;2.30;;;;;;;;;;5058725;28;20286;-56
2022/09/08 09:29:25;;;;;;;5.85;2.13;;;;;;;;;;5074942;28;20206;-58
2022/09/08 09:32:14;;;;;;;3.92;2.13;;;;;;;;;;5073571;28;20208;-57
2022/09/08 09:34:49;;;;;;;9.95;2.25;;;;;;;;;;5073884;28;20202;-55
2022/09/08 09:37:54;;;;;;;7.43;2.47;;;;;;;;;;5074610;28;20206;-57
2022/09/08 09:40:30;;;;;;;3.53;2.17;;;;;;;;;;5074630;28;20249;-57
2022/09/08 09:43:00;;;;;;;4.70;2.58;;;;;;;;;;5074820;28;20237;-56
2022/09/08 09:45:36;;;;;;;4.70;2.80;;;;;;;;;;5108675;28;20202;-57
2022/09/08 09:48:19;;;;;;;11.13;3.13;;;;;;;;;;5116642;28;20232;-56
2022/09/08 09:51:27;;;;;;;8.60;2.80;;;;;;;;;;5116864;28;20197;-54
2022/09/08 09:54:32;;;;;;;5.05;2.97;;;;;;;;;;5074129;28;20570;-57
2022/09/08 09:57:20;;;;;;;8.90;2.75;;;;;;;;;;5057024;28;20252;-58
2022/09/08 10:00:18;;;;;;;4.28;2.10;;;;;;;;;;5114117;28;20255;-57
2022/09/08 10:03:13;;;;;;;6.20;2.05;;;;;;;;;;5116643;28;20193;-56
2022/09/08 10:05:52;;;;;;;3.38;2.05;;;;;;;;;;5116035;28;20201;-56
2022/09/08 10:08:28;;;;;;;8.25;1.70;;;;;;;;;;5116802;27;20225;-58
2022/09/08 10:11:34;;;;;;;7.20;1.50;;;;;;;;;;5116987;28;20201;-55
2022/09/08 10:14:30;;;;;;;5.78;1.90;;;;;;;;;;5114923;28;20201;-58
2022/09/08 10:17:03;;;;;;;1.83;1.40;;;;;;;;;;5114821;28;20202;-56
2022/09/08 10:19:45;;;;;;;4.05;1.73;;;;;;;;;;5116111;28;20202;-57
2022/09/08 10:22:27;;;;;;;3.13;1.48;;;;;;;;;;5116126;28;20262;-55
2022/09/08 10:25:09;;;;;;;2.38;1.33;;;;;;;;;;5115232;28;20186;-57
2022/09/08 10:28:01;;;;;;;1.88;1.17;;;;;;;;;;5115544;28;20248;-55
2022/09/08 10:30:28;;;;;;;5.20;1.65;;;;;;;;;;5114877;28;20182;-58
2022/09/08 10:33:32;;;;;;;3.95;1.58;;;;;;;;;;5115795;28;20584;-56
2022/09/08 10:36:07;;;;;;;3.08;1.65;;;;;;;;;;5115108;28;20766;-58
2022/09/08 10:38:55;;;;;;;2.42;1.48;;;;;;;;;;5115851;28;20201;-57
2022/09/08 10:42:00;;;;;;;12.70;2.22;;;;;;;;;;5115525;28;20202;-55
2022/09/08 10:44:46;;;;;;;5.85;2.00;;;;;;;;;;5116171;28;20262;-58
2022/09/08 10:47:38;;;;;;;3.67;1.65;;;;;;;;;;5115695;28;20240;-56
2022/09/08 10:50:17;;;;;;;3.20;1.40;;;;;;;;;;5115893;28;20194;-54
2022/09/08 10:52:58;;;;;;;3.35;1.58;;;;;;;;;;5115918;28;20186;-53
2022/09/08 10:55:43;;;;;;;2.92;1.50;;;;;;;;;;5115717;28;20638;-56
2022/09/08 10:58:19;;;;;;;5.65;1.58;;;;;;;;;;5115716;28;20213;-57
2022/09/08 11:01:24;;;;;;;6.65;1.58;;;;;;;;;;5115686;28;20616;-55
2022/09/08 11:04:10;;;;;;;5.18;1.52;;;;;;;;;;5099707;28;20231;-56
2022/09/08 11:06:43;;;;;;;3.92;1.52;;;;;;;;;;5116047;28;20198;-57
2022/09/08 11:09:48;;;;;;;4.32;1.60;;;;;;;;;;5113864;28;20542;-57
2022/09/08 11:12:40;;;;;;;6.25;1.70;;;;;;;;;;5115154;28;20289;-57
2022/09/08 11:15:33;;;;;;;4.75;1.20;;;;;;;;;;5115216;28;20692;-57
2022/09/08 11:18:39;;;;;;;3.65;1.48;;;;;;;;;;5113567;28;20694;-58
2022/09/08 11:21:08;;;;;;;3.95;1.40;;;;;;;;;;5112810;28;20190;-56
2022/09/08 11:24:04;;;;;;;3.47;1.67;;;;;;;;;;5114490;28;20186;-58
2022/09/08 11:27:05;;;;;;;4.00;1.55;;;;;;;;;;5115537;28;20186;-56
2022/09/08 11:29:37;;;;;;;5.93;1.42;;;;;;;;;;5116548;28;20598;-58
2022/09/08 11:32:55;;;;;;;5.90;1.42;;;;;;;;;;5119294;28;20198;-57
2022/09/08 11:35:30;;;;;;;2.40;1.30;;;;;;;;;;5075559;28;20263;-56
2022/09/08 11:38:18;;;;;;;4.85;1.45;;;;;;;;;;5076853;28;20207;-57
2022/09/08 11:40:57;;;;;;;6.40;1.90;;;;;;;;;;5075890;28;20203;-57
2022/09/08 11:43:34;;;;;;;4.22;1.70;;;;;;;;;;5074572;28;20278;-57
2022/09/08 11:46:20;;;;;;;6.72;1.70;;;;;;;;;;5074475;28;20288;-58
2022/09/08 11:48:56;;;;;;;2.95;1.58;;;;;;;;;;5060180;28;20250;-58
2022/09/08 11:52:18;;;;;;;3.60;1.55;;;;;;;;;;5076627;28;20299;-57
2022/09/08 11:55:32;;;;;;;8.48;2.40;;;;;;;;;;5062926;28;20276;-58
2022/09/08 11:58:02;;;;;;;4.00;1.80;;;;;;;;;;5058354;28;20223;-60
2022/09/08 12:00:56;;;;;;;4.35;1.65;;;;;;;;;;5052494;28;20571;-60
2022/09/08 12:03:31;;;;;;;5.50;2.20;;;;;;;;;;5029668;28;20304;-60
2022/09/08 12:06:30;;;;;;;11.25;2.00;;;;;;;;;;5050280;28;20585;-60
2022/09/08 12:09:19;;;;;;;3.65;1.60;;;;;;;;;;5046342;28;20669;-60
2022/09/08 12:11:50;;;;;;;6.35;2.08;;;;;;;;;;5091781;28;20256;-59
2022/09/08 12:14:41;;;;;;;4.78;2.10;;;;;;;;;;5113478;28;20269;-60
2022/09/08 12:17:32;;;;;;;3.22;1.55;;;;;;;;;;5111140;28;20711;-60
2022/09/08 12:20:26;;;;;;;11.35;1.90;;;;;;;;;;5113128;28;20708;-59
2022/09/08 12:23:48;;;;;;;4.85;2.35;;;;;;;;;;5113883;28;20229;-59
2022/09/08 12:26:24;;;;;;;6.00;1.77;;;;;;;;;;5073395;28;20223;-59
2022/09/08 12:29:16;;;;;;;7.18;1.95;;;;;;;;;;5074710;28;20634;-57
2022/09/08 12:32:08;;;;;;;6.63;2.05;;;;;;;;;;5070068;28;20215;-57
2022/09/08 12:34:59;;;;;;;6.50;2.00;;;;;;;;;;5054568;28;20238;-57
2022/09/08 12:37:51;;;;;;;11.70;2.30;;;;;;;;;;5073107;28;20562;-57
2022/09/08 12:40:46;;;;;;;7.00;2.10;;;;;;;;;;5044600;28;20224;-57
2022/09/08 12:43:20;;;;;;;4.43;2.10;;;;;;;;;;5046586;28;20243;-56
2022/09/08 12:46:08;;;;;;;9.82;2.10;;;;;;;;;;5071637;28;20238;-57
2022/09/08 12:48:53;;;;;;;6.88;2.13;;;;;;;;;;5073244;28;20231;-57
2022/09/08 12:51:31;;;;;;;17.73;2.80;;;;;;;;;;5068305;28;20318;-57
2022/09/08 12:54:23;;;;;;;9.00;2.38;;;;;;;;;;5056682;28;20737;-57
2022/09/08 12:57:28;;;;;;;9.32;2.20;;;;;;;;;;5072936;28;20274;-57
2022/09/08 12:59:58;;;;;;;8.77;2.15;;;;;;;;;;5084224;28;20218;-56
2022/09/08 13:02:44;;;;;;;6.97;2.05;;;;;;;;;;5114271;28;20222;-57
2022/09/08 13:05:48;;;;;;;5.45;2.38;;;;;;;;;;5113721;28;20217;-57
2022/09/08 13:08:32;;;;;;;10.80;2.40;;;;;;;;;;5115399;27;20232;-57
2022/09/08 13:11:18;;;;;;;3.42;2.22;;;;;;;;;;5112787;28;20599;-57
2022/09/08 13:13:45;;;;;;;10.82;2.53;;;;;;;;;;5113916;28;20217;-57
2022/09/08 13:16:31;;;;;;;17.08;2.88;;;;;;;;;;5114578;28;20209;-57
2022/09/08 13:19:03;;;;;;;8.23;1.90;;;;;;;;;;5112988;28;20280;-57
2022/09/08 13:21:38;;;;;;;4.90;2.03;;;;;;;;;;5114624;27;20228;-57
2022/09/08 13:24:21;;;;;;;13.43;2.40;;;;;;;;;;5113192;28;20686;-57
2022/09/08 13:27:12;;;;;;;6.30;2.30;;;;;;;;;;5112288;27;20260;-57
2022/09/08 13:29:42;;;;;;;4.43;1.85;;;;;;;;;;5110195;28;20237;-57
2022/09/08 13:33:00;;;;;;;5.78;2.10;;;;;;;;;;5111838;27;20501;-57
2022/09/08 13:35:39;;;;;;;9.55;2.30;;;;;;;;;;5082970;28;20225;-57
2022/09/08 13:38:40;;;;;;;5.43;2.17;;;;;;;;;;5113110;28;20278;-54
2022/09/08 13:41:29;;;;;;;7.45;2.00;;;;;;;;;;5111150;28;20654;-55
2022/09/08 13:44:17;;;;;;;7.13;2.38;;;;;;;;;;5110293;28;20651;-56
2022/09/08 13:47:02;;;;;;;8.20;2.10;;;;;;;;;;5105227;28;20230;-55
2022/09/08 13:49:45;;;;;;;4.97;1.80;;;;;;;;;;5114363;28;20316;-56
2022/09/08 13:52:21;;;;;;;5.70;2.00;;;;;;;;;;5112607;27;20214;-57
2022/09/08 13:55:07;;;;;;;5.40;2.40;;;;;;;;;;5112477;28;20669;-55
2022/09/08 13:57:37;;;;;;;4.05;1.83;;;;;;;;;;5113176;28;20700;-55
2022/09/08 14:00:14;;;;;;;17.05;2.28;;;;;;;;;;5115683;28;20230;-57
2022/09/08 14:03:02;;;;;;;5.22;2.15;;;;;;;;;;5115751;27;20248;-57
2022/09/08 14:05:28;;;;;;;11.30;2.13;;;;;;;;;;5115375;28;20262;-56
2022/09/08 14:08:10;;;;;;;3.88;2.20;;;;;;;;;;5116647;28;20205;-56
2022/09/08 14:10:40;;;;;;;5.22;2.25;;;;;;;;;;5116344;28;20236;-57
2022/09/08 14:13:10;;;;;;;6.38;2.70;;;;;;;;;;5116333;28;20198;-56
2022/09/08 14:15:52;;;;;;;8.07;2.67;;;;;;;;;;5114953;28;20535;-57
2022/09/08 14:18:31;;;;;;;7.50;2.22;;;;;;;;;;5113385;28;20186;-57
2022/09/08 14:21:24;;;;;;;12.18;2.53;;;;;;;;;;5113629;28;20613;-57
2022/09/08 14:23:57;;;;;;;7.93;2.38;;;;;;;;;;5112482;28;20186;-56
2022/09/08 14:26:48;;;;;;;6.75;2.35;;;;;;;;;;5115608;28;20198;-57
2022/09/08 14:29:27;;;;;;;6.78;2.47;;;;;;;;;;5112627;28;20214;-57
2022/09/08 14:32:16;;;;;;;3.80;2.08;;;;;;;;;;5112540;28;20610;-56
2022/09/08 14:35:18;;;;;;;6.72;2.50;;;;;;;;;;5111929;28;20190;-55
2022/09/08 14:38:02;;;;;;;14.93;3.08;;;;;;;;;;5111677;28;20566;-59
2022/09/08 14:40:43;;;;;;;12.10;2.60;;;;;;;;;;5110304;28;20202;-57
2022/09/08 14:43:41;;;;;;;6.57;2.70;;;;;;;;;;5105305;28;20201;-55
2022/09/08 14:46:08;;;;;;;11.00;2.60;;;;;;;;;;5112483;28;20202;-57
2022/09/08 14:49:21;;;;;;;4.30;2.30;;;;;;;;;;5114498;28;20237;-56
2022/09/08 14:52:09;;;;;;;3.80;2.17;;;;;;;;;;5096804;28;20202;-56
2022/09/08 14:55:34;;;;;;;5.25;2.40;;;;;;;;;;5112259;28;20187;-58
2022/09/08 14:58:39;;;;;;;5.20;2.20;;;;;;;;;;5058781;28;20200;-57
2022/09/08 15:01:30;;;;;;;5.57;2.38;;;;;;;;;;5053154;28;20184;-57
2022/09/08 15:03:59;;;;;;;5.10;2.00;;;;;;;;;;5048727;28;20234;-57
2022/09/08 15:06:53;;;;;;;8.20;2.30;;;;;;;;;;5055980;28;20195;-56
2022/09/08 15:09:21;;;;;;;4.53;2.30;;;;;;;;;;5072651;28;20234;-57
2022/09/08 15:11:54;;;;;;;6.05;2.20;;;;;;;;;;5072150;28;20625;-58
2022/09/08 15:14:26;;;;;;;6.05;2.38;;;;;;;;;;5056386;28;20184;-57
2022/09/08 15:17:13;;;;;;;5.93;1.90;;;;;;;;;;5071909;28;20207;-58
2022/09/08 15:19:47;;;;;;;6.47;2.28;;;;;;;;;;5070868;28;20202;-58
2022/09/08 15:22:35;;;;;;;14.40;2.80;;;;;;;;;;5053936;28;20214;-58
2022/09/08 15:25:43;;;;;;;5.82;2.25;;;;;;;;;;5056174;28;20211;-57
2022/09/08 15:28:25;;;;;;;9.77;2.38;;;;;;;;;;5046954;28;20210;-57
2022/09/08 15:31:36;;;;;;;9.48;2.67;;;;;;;;;;5114705;28;20192;-58
2022/09/08 15:34:06;;;;;;;18.20;2.85;;;;;;;;;;5070171;28;20294;-58
2022/09/08 15:36:35;;;;;;;4.70;2.13;;;;;;;;;;5069029;28;20203;-58
2022/09/08 15:39:38;;;;;;;6.57;2.53;;;;;;;;;;5070980;28;20298;-58
2022/09/08 15:42:17;;;;;;;8.00;2.70;;;;;;;;;;5070784;28;20207;-58
2022/09/08 15:44:50;;;;;;;4.28;2.05;;;;;;;;;;5069206;28;20211;-57
2022/09/08 15:47:52;;;;;;;3.90;2.08;;;;;;;;;;5071405;28;20243;-58
2022/09/08 15:50:33;;;;;;;4.75;2.33;;;;;;;;;;5054664;28;20246;-58